Time;durP1;ratioP1;P1;durP2;ratioP2;P2;SDS_P1;SDS_P2;PMS_P1;PMS_P2;Temp;Humidity;BMP_temperature;BMP_pressure;BME280_temperature;BME280_humidity;BME280_pressure;Samples;Min_cycle;Max_cycle;Signal;HPM_P1;HPM_P2
2022/02/11 00:01:00;;;;;;;16.40;1.77;;;;;;;1.36;93.07;101845.00;2055918;28;42925;-72
2022/02/11 00:02:17;;;;;;;12.60;1.83;;;;;;;1.30;92.81;101843.06;2056620;28;45899;-72
2022/02/11 00:06:21;;;;;;;12.48;1.30;;;;;;;1.33;93.32;101837.91;2055719;28;45347;-73
2022/02/11 00:07:24;;;;;;;12.82;1.30;;;;;;;1.29;92.79;101833.38;2055840;28;45786;-72
2022/02/11 00:08:26;;;;;;;11.13;1.55;;;;;;;1.23;93.03;101831.44;2056367;28;43730;-73
2022/02/11 00:09:28;;;;;;;11.05;1.35;;;;;;;1.23;92.71;101835.84;2055496;28;45154;-73
2022/02/11 00:10:29;;;;;;;11.40;1.60;;;;;;;1.23;93.22;101830.56;2056049;28;42063;-73
2022/02/11 00:11:37;;;;;;;16.38;1.73;;;;;;;1.24;92.95;101829.69;2056049;28;39584;-72
2022/02/11 00:12:39;;;;;;;11.45;1.30;;;;;;;1.17;93.66;101828.63;2063553;28;44312;-73
2022/02/11 00:13:43;;;;;;;13.73;1.30;;;;;;;1.19;93.38;101828.69;2063446;28;43732;-72
2022/02/11 00:14:59;;;;;;;12.18;1.70;;;;;;;1.18;93.65;101832.16;2063038;28;43375;-72
2022/02/11 00:16:01;;;;;;;13.07;1.38;;;;;;;1.17;93.73;101820.72;2056200;28;43581;-73
2022/02/11 00:17:03;;;;;;;15.60;1.80;;;;;;;1.19;93.35;101826.06;2056052;28;45416;-73
2022/02/11 00:18:06;;;;;;;17.52;1.42;;;;;;;1.16;93.61;101825.94;2055977;28;45574;-73
2022/02/11 00:19:10;;;;;;;13.88;1.75;;;;;;;1.16;93.69;101823.31;2056188;28;20897;-72
2022/02/11 00:20:11;;;;;;;15.10;1.38;;;;;;;1.20;93.45;101819.91;2055272;28;45998;-72
2022/02/11 00:21:15;;;;;;;13.40;1.77;;;;;;;1.13;93.47;101822.38;2056098;28;42456;-73
2022/02/11 00:22:16;;;;;;;16.00;1.67;;;;;;;1.17;93.41;101815.44;2056016;28;45335;-73
2022/02/11 00:23:21;;;;;;;14.63;1.63;;;;;;;1.20;93.55;101815.50;2055112;28;46994;-72
2022/02/11 00:24:23;;;;;;;11.65;1.40;;;;;;;1.20;92.92;101817.28;2048033;28;45967;-73
2022/02/11 00:25:25;;;;;;;10.30;1.67;;;;;;;1.18;93.42;101827.75;2054787;28;46680;-72
2022/02/11 00:26:34;;;;;;;13.73;1.52;;;;;;;1.13;93.29;101811.81;2055842;28;42325;-72
2022/02/11 00:32:31;;;;;;;15.55;1.40;;;;;;;1.18;93.02;101811.94;2060967;28;44829;-73
2022/02/11 00:33:36;;;;;;;11.05;1.23;;;;;;;1.24;93.72;101812.13;2056176;28;41530;-72
2022/02/11 00:34:46;;;;;;;8.20;1.30;;;;;;;1.30;93.38;101800.88;2055305;28;46501;-73
2022/02/11 00:36:00;;;;;;;13.43;1.73;;;;;;;1.31;93.45;101805.28;2048955;28;44192;-72
2022/02/11 00:37:12;;;;;;;11.98;1.27;;;;;;;1.36;93.30;101793.13;2058391;28;43678;-72
2022/02/11 00:38:20;;;;;;;10.40;1.20;;;;;;;1.33;93.08;101800.97;2061101;28;45553;-71
2022/02/11 00:46:37;;;;;;;13.23;1.40;;;;;;;1.51;92.40;101796.19;2046821;28;45866;-72
2022/02/11 01:02:16;;;;;;;12.38;1.80;;;;;;;1.55;92.35;101775.19;2055131;28;44809;-73
2022/02/11 01:04:20;;;;;;;16.50;1.90;;;;;;;1.56;92.03;101766.41;2055445;28;41976;-73
2022/02/11 01:05:22;;;;;;;12.95;1.83;;;;;;;1.56;91.85;101771.66;2055620;28;44447;-73
2022/02/11 01:06:24;;;;;;;10.15;1.92;;;;;;;1.58;91.87;101770.88;2055611;28;45493;-72
2022/02/11 01:07:27;;;;;;;18.55;1.92;;;;;;;1.57;91.78;101771.72;2055140;28;44420;-73
2022/02/11 01:08:29;;;;;;;9.68;1.73;;;;;;;1.57;91.71;101770.84;2054484;28;45077;-73
2022/02/11 01:09:32;;;;;;;12.90;2.10;;;;;;;1.58;91.90;101769.97;2055520;28;45207;-73
2022/02/11 01:10:34;;;;;;;11.82;2.00;;;;;;;1.52;91.69;101768.94;2055469;28;43522;-73
2022/02/11 01:11:43;;;;;;;14.77;2.13;;;;;;;1.49;92.39;101766.25;2055091;28;44035;-73
2022/02/11 01:12:45;;;;;;;12.32;2.10;;;;;;;1.48;92.27;101764.44;2055057;28;45917;-73
2022/02/11 01:13:47;;;;;;;10.57;1.70;;;;;;;1.43;92.41;101766.06;2055715;28;43629;-72
2022/02/11 01:14:53;;;;;;;11.45;2.17;;;;;;;1.47;92.13;101762.66;2055717;28;46295;-73
2022/02/11 01:16:03;;;;;;;10.30;2.20;;;;;;;1.46;92.53;101763.50;2055064;28;44353;-73
2022/02/11 01:17:28;;;;;;;13.05;2.20;;;;;;;1.48;91.86;101760.91;2055425;28;45671;-73
2022/02/11 01:18:31;;;;;;;12.85;2.28;;;;;;;1.41;92.52;101759.84;2051777;28;42924;-73
2022/02/11 01:21:59;;;;;;;13.18;1.92;;;;;;;1.34;92.88;101765.81;2055723;28;45460;-72
2022/02/11 01:31:52;;;;;;;16.27;2.92;;;;;;;1.26;92.84;101746.25;2055856;28;42991;-73
2022/02/11 01:34:30;;;;;;;11.60;2.10;;;;;;;1.22;93.42;101744.34;2055294;28;46015;-72
2022/02/11 01:35:52;;;;;;;16.90;2.35;;;;;;;1.21;93.12;101737.31;2055791;28;44269;-72
2022/02/11 01:54:30;;;;;;;12.77;2.85;;;;;;;1.04;93.47;101728.88;2055567;28;44704;-73
2022/02/11 01:57:02;;;;;;;14.43;2.60;;;;;;;0.99;93.46;101726.13;2055254;28;45574;-72
2022/02/11 02:00:39;;;;;;;10.43;2.30;;;;;;;1.01;93.81;101726.19;2046090;28;46461;-73
2022/02/11 02:06:36;;;;;;;11.80;2.88;;;;;;;0.96;93.61;101707.59;2055510;28;46436;-72
2022/02/11 02:10:34;;;;;;;12.98;2.53;;;;;;;1.02;93.47;101697.19;2054922;28;45860;-73
2022/02/11 02:11:39;;;;;;;12.68;2.53;;;;;;;1.05;93.52;101702.56;2055830;28;40755;-72
2022/02/11 02:13:09;;;;;;;11.98;3.20;;;;;;;1.05;93.55;101692.03;2055302;28;44253;-73
2022/02/11 02:14:40;;;;;;;11.75;2.35;;;;;;;1.01;93.34;101689.28;2055416;28;45756;-72
2022/02/11 02:17:57;;;;;;;14.10;2.88;;;;;;;1.03;94.06;101693.72;2055239;28;46234;-73
2022/02/11 02:28:27;;;;;;;12.90;2.67;;;;;;;1.08;93.39;101668.38;2055233;28;46164;-73
2022/02/11 02:32:42;;;;;;;13.25;2.30;;;;;;;1.00;92.70;101656.72;2055269;28;43023;-72
2022/02/11 02:35:18;;;;;;;6.47;2.30;;;;;;;0.94;93.12;101648.66;2058302;28;46035;-73
2022/02/11 02:57:59;;;;;;;11.85;3.05;;;;;;;0.90;93.12;101620.44;2055132;28;45707;-72
2022/02/11 02:59:09;;;;;;;18.35;3.17;;;;;;;0.83;92.86;101624.63;2053589;28;43919;-72
2022/02/11 03:01:45;;;;;;;11.10;2.80;;;;;;;0.78;93.25;101620.09;2055430;28;44339;-73
2022/02/11 03:15:34;;;;;;;10.70;3.08;;;;;;;1.13;93.06;101603.47;2055278;28;42417;-73
2022/02/11 03:31:30;;;;;;;16.70;3.17;;;;;;;1.11;92.53;101605.19;2054921;28;42744;-73
2022/02/11 03:35:27;;;;;;;;;;;;;;;1.49;90.79;101570.97;2055449;28;44796;-73
2022/02/11 04:20:38;;;;;;;;;;;;;;;2.04;94.96;101529.09;2055347;28;43051;-74
2022/02/11 04:23:11;;;;;;;;;;;;;;;2.07;94.62;101538.84;2056629;28;45859;-73
2022/02/11 04:55:29;;;;;;;;;;;;;;;2.09;96.90;101508.94;2056067;28;45279;-72
2022/02/11 04:56:37;;;;;;;;;;;;;;;2.07;96.54;101500.09;2056118;28;41968;-71
2022/02/11 05:00:19;;;;;;;;;;;;;;;2.08;96.09;101500.97;2056886;28;39810;-72
2022/02/11 05:01:23;;;;;;;;;;;;;;;2.08;96.42;101498.34;2057293;28;19974;-72
2022/02/11 05:02:30;;;;;;;;;;;;;;;2.08;96.84;101498.34;2056367;28;43478;-72
2022/02/11 05:03:34;;;;;;;;;;;;;;;2.09;96.98;101495.75;2056246;28;44533;-72
2022/02/11 05:04:35;;;;;;;;;;;;;;;2.11;97.20;101506.34;2056199;28;46268;-72
2022/02/11 05:05:49;;;;;;;;;;;;;;;2.12;97.05;101499.28;2056612;28;40072;-72
2022/02/11 05:06:51;;;;;;;;;;;;;;;2.12;96.73;101494.94;2056173;28;43840;-72
2022/02/11 05:07:53;;;;;;;;;;;;;;;2.12;96.93;101494.94;2056424;28;44589;-72
2022/02/11 05:08:58;;;;;;;;;;;;;;;2.13;96.43;101493.16;2055270;28;43007;-73
2022/02/11 05:09:59;;;;;;;;;;;;;;;2.14;96.89;101498.50;2056283;28;46176;-72
2022/02/11 05:11:03;;;;;;;;;;;;;;;2.16;97.04;101499.41;2056071;28;44066;-72
2022/02/11 05:12:04;;;;;;;;;;;;;;;2.17;97.44;101500.28;2056283;28;43121;-72
2022/02/11 05:13:06;;;;;;;;;;;;;;;2.18;97.20;101500.31;2056165;28;43571;-72
2022/02/11 05:14:08;;;;;;;;;;;;;;;2.19;96.59;101490.63;2056422;28;45174;-71
2022/02/11 05:15:11;;;;;;;;;;;;;;;2.20;97.10;101501.25;2056391;28;45292;-72
2022/02/11 05:16:13;;;;;;;;;;;;;;;2.22;96.47;101501.28;2056460;28;45139;-71
2022/02/11 05:17:14;;;;;;;;;;;;;;;2.24;96.85;101503.09;2056214;28;45433;-72
2022/02/11 05:18:17;;;;;;;;;;;;;;;2.25;97.39;101494.31;2056141;28;44442;-72
2022/02/11 05:19:18;;;;;;;;;;;;;;;2.24;96.61;101495.19;2056337;28;43024;-72
2022/02/11 05:20:20;;;;;;;;;;;;;;;2.27;96.44;101487.28;2057016;28;19974;-72
2022/02/11 05:21:22;;;;;;;;;;;;;;;2.31;97.22;101490.00;2057243;28;20840;-72
2022/02/11 05:22:24;;;;;;;;;;;;;;;2.31;96.70;101487.38;2056619;28;43266;-72
2022/02/11 05:23:25;;;;;;;;;;;;;;;2.32;96.99;101486.50;2055500;28;46498;-72
2022/02/11 05:24:27;;;;;;;;;;;;;;;2.31;97.51;101488.25;2056710;28;44921;-72
2022/02/11 05:25:28;;;;;;;;;;;;;;;2.33;97.33;101483.88;2055869;28;44193;-72
2022/02/11 05:26:30;;;;;;;;;;;;;;;2.35;97.01;101491.84;2056418;28;43581;-72
2022/02/11 05:27:31;;;;;;;;;;;;;;;2.35;97.65;101492.75;2055945;28;42898;-72
2022/02/11 05:28:35;;;;;;;;;;;;;;;2.37;96.77;101479.53;2056270;28;46200;-72
2022/02/11 05:29:39;;;;;;;;;;;;;;;2.39;97.73;101489.31;2056063;28;43254;-72
2022/02/11 05:30:43;;;;;;;;;;;;;;;2.40;97.69;101474.31;2056000;28;44503;-72
2022/02/11 05:31:44;;;;;;;;;;;;;;;2.43;97.72;101483.19;2055956;28;44886;-72
2022/02/11 05:32:46;;;;;;;;;;;;;;;2.44;97.35;101482.34;2055622;28;45088;-72
2022/02/11 05:33:50;;;;;;;;;;;;;;;2.46;97.18;101485.91;2054911;28;46289;-72
2022/02/11 05:34:51;;;;;;;;;;;;;;;2.49;97.60;101485.06;2056281;28;44465;-72
2022/02/11 05:35:53;;;;;;;;;;;;;;;2.52;97.27;101484.25;2056147;28;44382;-72
2022/02/11 05:36:54;;;;;;;;;;;;;;;2.53;97.10;101486.00;2056389;28;38859;-72
2022/02/11 05:37:56;;;;;;;;;;;;;;;2.52;97.47;101482.50;2055702;28;45059;-72
2022/02/11 05:38:57;;;;;;;;;;;;;;;2.55;96.97;101477.28;2055556;28;45254;-72
2022/02/11 05:39:59;;;;;;;;;;;;;;;2.56;97.81;101476.38;2056954;28;19926;-72
2022/02/11 05:41:01;;;;;;;;;;;;;;;2.58;96.95;101473.78;2055990;28;43032;-72
2022/02/11 05:42:03;;;;;;;;;;;;;;;2.61;97.80;101471.19;2056314;28;44598;-72
2022/02/11 05:43:04;;;;;;;;;;;;;;;2.60;97.72;101478.25;2055985;28;43411;-72
2022/02/11 05:44:06;;;;;;;;;;;;;;;2.62;97.41;101465.94;2055807;28;46570;-72
2022/02/11 05:45:10;;;;;;;;;;;;;;;2.63;97.29;101478.28;2056704;28;19922;-72
2022/02/11 05:46:15;;;;;;;;;;;;;;;2.62;97.16;101465.94;2055638;28;43005;-72
2022/02/11 05:47:16;;;;;;;;;;;;;;;2.64;97.81;101469.50;2056111;28;44919;-72
2022/02/11 05:48:18;;;;;;;;;;;;;;;2.64;97.29;101464.22;2057146;28;20728;-72
2022/02/11 05:49:21;;;;;;;;;;;;;;;2.66;97.08;101472.19;2055982;28;44024;-72
2022/02/11 05:50:23;;;;;;;;;;;;;;;2.66;97.07;101472.19;2057186;28;19918;-72
2022/02/11 05:51:29;;;;;;;;;;;;;;;2.67;97.54;101469.56;2055973;28;45119;-71
2022/02/11 05:52:33;;;;;;;;;;;;;;;2.70;97.62;101465.19;2054904;28;45059;-71
2022/02/11 05:53:34;;;;;;;;;;;;;;;2.71;97.35;101472.25;2055423;28;44027;-72
2022/02/11 05:54:36;;;;;;;;;;;;;;;2.71;97.07;101470.50;2056146;28;45325;-71
2022/02/11 05:55:38;;;;;;;;;;;;;;;2.74;97.28;101467.91;2056315;28;43225;-72
2022/02/11 05:56:39;;;;;;;;;;;;;;;2.75;97.67;101480.28;2055955;28;45415;-72
2022/02/11 05:57:41;;;;;;;;;;;;;;;2.75;97.69;101472.34;2055816;28;46655;-72
2022/02/11 05:58:43;;;;;;;;;;;;;;;2.77;97.35;101469.72;2057107;28;19929;-72
2022/02/11 05:59:45;;;;;;;;;;;;;;;2.80;97.62;101472.41;2055777;28;43371;-72
2022/02/11 06:00:48;;;;;;;;;;;;;;;2.80;97.35;101478.59;2056952;28;19922;-71
2022/02/11 06:01:49;;;;;;;;;;;;;;;2.81;97.54;101472.44;2055675;28;45635;-72
2022/02/11 06:02:53;;;;;;;;;;;;;;;2.82;97.34;101470.69;2055681;28;46384;-72
2022/02/11 06:03:54;;;;;;;;;;;;;;;2.83;97.35;101475.09;2055991;28;40806;-72
2022/02/11 06:04:56;;;;;;;;;;;;;;;2.82;97.13;101466.28;2055574;28;43166;-72
2022/02/11 06:05:58;;;;;;;;;;;;;;;2.83;97.44;101462.75;2056049;28;44699;-72
2022/02/11 06:07:00;;;;;;;;;;;;;;;2.85;97.47;101471.66;2056309;28;41959;-71
2022/02/11 06:08:01;;;;;;;;;;;;;;;2.85;97.68;101470.72;2054981;28;44163;-72
2022/02/11 06:09:03;;;;;;;;;;;;;;;2.86;97.77;101467.25;2056059;28;45763;-72
2022/02/11 06:10:05;;;;;;;;;;;;;;;2.88;97.62;101469.91;2055755;28;45041;-72
2022/02/11 06:11:06;;;;;;;;;;;;;;;2.89;97.60;101469.94;2055642;28;46253;-72
2022/02/11 06:12:08;;;;;;;;;;;;;;;2.90;97.67;101465.53;2055896;28;42099;-72
2022/02/11 06:13:10;;;;;;;;;;;;;;;2.90;97.59;101471.72;2056310;28;43131;-72
2022/02/11 06:14:13;;;;;;;;;;;;;;;2.90;97.52;101466.41;2055556;28;44531;-72
2022/02/11 06:15:14;;;;;;;;;;;;;;;2.92;97.74;101471.75;2056147;28;45859;-72
2022/02/11 06:16:16;;;;;;;;;;;;;;;2.92;97.63;101474.38;2055964;28;46158;-72
2022/02/11 06:17:20;;;;;;;;;;;;;;;2.92;97.74;101469.09;2055959;28;42729;-72
2022/02/11 06:18:21;;;;;;;;;;;;;;;2.92;97.66;101475.25;2055640;28;44361;-72
2022/02/11 06:19:23;;;;;;;;;;;;;;;2.94;97.78;101472.66;2056139;28;45915;-72
2022/02/11 06:20:28;;;;;;;;;;;;;;;2.96;97.55;101473.56;2055645;28;43889;-71
2022/02/11 06:21:32;;;;;;;;;;;;;;;2.96;97.72;101468.28;2055807;28;43991;-71
2022/02/11 06:22:33;;;;;;;;;;;;;;;2.97;97.99;101464.78;2055574;28;44162;-72
2022/02/11 06:23:35;;;;;;;;;;;;;;;2.99;97.93;101476.25;2055971;28;45298;-72
2022/02/11 06:24:37;;;;;;;;;;;;;;;3.00;97.99;101473.66;2055470;28;46119;-71
2022/02/11 06:25:39;;;;;;;;;;;;;;;3.01;97.65;101469.25;2055556;28;43991;-71
2022/02/11 06:26:41;;;;;;;;;;;;;;;3.02;97.68;101466.63;2055652;28;44917;-71
2022/02/11 06:27:46;;;;;;;;;;;;;;;3.03;97.81;101462.22;2056759;28;19918;-73
2022/02/11 06:28:47;;;;;;;;;;;;;;;3.05;97.90;101469.34;2056191;28;44299;-72
2022/02/11 06:29:49;;;;;;;;;;;;;;;3.05;98.09;101466.69;2055843;28;45022;-72
2022/02/11 06:30:51;;;;;;;;;;;;;;;3.08;97.81;101464.94;2054697;28;43183;-72
2022/02/11 06:31:52;;;;;;;;;;;;;;;3.09;97.97;101470.28;2055059;28;45349;-72
2022/02/11 06:32:56;;;;;;;;;;;;;;;3.10;98.32;101468.50;2055033;28;43456;-72
2022/02/11 06:33:57;;;;;;;;;;;;;;;3.14;98.12;101465.03;2055146;28;45435;-72
2022/02/11 06:34:59;;;;;;;;;;;;;;;3.15;97.97;101467.72;2055731;28;43945;-72
2022/02/11 06:36:02;;;;;;;;;;;;;;;3.17;98.03;101473.03;2056013;28;42726;-71
2022/02/11 06:37:06;;;;;;;;;;;;;;;3.18;98.04;101462.47;2055649;28;45439;-72
2022/02/11 06:38:10;;;;;;;;;;;;;;;3.20;98.03;101463.38;2055228;28;43779;-72
2022/02/11 06:39:12;;;;;;;;;;;;;;;3.21;97.94;101461.63;2055007;28;44261;-72
2022/02/11 06:40:15;;;;;;;;;;;;;;;3.23;97.96;101465.19;2055696;28;46257;-72
2022/02/11 06:41:16;;;;;;;;;;;;;;;3.23;97.83;101463.44;2055081;28;44308;-72
2022/02/11 06:42:18;;;;;;;;;;;;;;;3.24;97.93;101461.69;2055666;28;39495;-72
2022/02/11 06:43:19;;;;;;;;;;;;;;;3.25;98.11;101467.00;2055581;28;45992;-72
2022/02/11 06:44:21;;;;;;;;;;;;;;;3.25;97.87;101463.47;2056116;28;44564;-72
2022/02/11 06:45:23;;;;;;;;;;;;;;;3.27;98.02;101472.31;2054839;28;44541;-72
2022/02/11 06:46:25;;;;;;;;;;;;;;;3.29;97.68;101475.88;2055878;28;44418;-72
2022/02/11 06:47:26;;;;;;;;;;;;;;;3.30;97.83;101477.63;2055359;28;42053;-72
2022/02/11 06:48:28;;;;;;;;;;;;;;;3.31;97.87;101484.72;2055719;28;44675;-71
2022/02/11 06:49:31;;;;;;;;;;;;;;;3.33;98.28;101484.75;2055522;28;45590;-72
2022/02/11 06:50:32;;;;;;;;;;;;;;;3.34;97.89;101484.78;2055426;28;45657;-72
2022/02/11 06:51:34;;;;;;;;;;;;;;;3.35;98.12;101486.53;2055855;28;44211;-72
2022/02/11 06:52:35;;;;;;;;;;;;;;;3.37;97.83;101491.88;2055706;28;44026;-72
2022/02/11 06:53:37;;;;;;;;;;;;;;;3.37;98.00;101490.09;2055151;28;40240;-72
2022/02/11 06:54:39;;;;;;;;;;;;;;;3.38;97.92;101491.88;2055877;28;44134;-72
2022/02/11 06:55:46;;;;;;;;;;;;;;;3.40;97.65;101484.84;2055490;28;43972;-72
2022/02/11 06:56:48;;;;;;;;;;;;;;;3.42;97.73;101496.34;2056430;28;19988;-72
2022/02/11 06:57:50;;;;;;;;;;;;;;;3.44;97.60;101502.56;2054879;28;42858;-72
2022/02/11 06:58:55;;;;;;;;;;;;;;;3.44;97.83;101510.50;2047857;28;43295;-71
2022/02/11 06:59:56;;;;;;;;;;;;;;;3.44;97.58;101499.91;2055229;28;41795;-72
2022/02/11 07:01:00;;;;;;;;;;;;;;;3.47;97.45;101504.38;2055609;28;45575;-71
2022/02/11 07:02:01;;;;;;;;;;;;;;;3.47;97.29;101509.69;2055151;28;45688;-72
2022/02/11 07:03:03;;;;;;;;;;;;;;;3.48;97.43;101507.91;2055769;28;45308;-72
2022/02/11 07:04:05;;;;;;;;;;;;;;;3.51;97.40;101510.63;2055436;28;45302;-72
2022/02/11 07:05:07;;;;;;;;;;;;;;;3.51;97.62;101515.91;2055486;28;42809;-72
2022/02/11 07:06:10;;;;;;;;;;;;;;;3.52;97.54;101517.69;2055467;28;44311;-72
2022/02/11 07:07:12;;;;;;;;;;;;;;;3.53;97.46;101533.59;2055537;28;43940;-72
2022/02/11 07:08:14;;;;;;;;;;;;;;;3.52;97.03;101517.69;2055424;28;45336;-72
2022/02/11 07:09:15;;;;;;;;;;;;;;;3.54;97.20;101531.84;2055440;28;46337;-71
2022/02/11 07:10:17;;;;;;;;;;;;;;;3.54;97.41;101529.19;2055205;28;42992;-72
2022/02/11 07:11:18;;;;;;;;;;;;;;;3.55;97.44;101530.97;2054761;28;44158;-71
2022/02/11 07:12:20;;;;;;;;;;;;;;;3.56;97.59;101538.06;2055270;28;45872;-72
2022/02/11 07:13:22;;;;;;;;;;;;;;;3.57;97.10;101529.22;2055931;28;44147;-72
2022/02/11 07:14:24;;;;;;;;;;;;;;;3.59;97.36;101535.47;2055302;28;45410;-72
2022/02/11 07:15:27;;;;;;;;;;;;;;;3.60;97.56;101535.47;2055495;28;44456;-71
2022/02/11 07:16:28;;;;;;;;;;;;;;;3.62;97.18;101551.38;2055476;28;43901;-72
2022/02/11 07:17:33;;;;;;;;;;;;;;;3.63;97.76;101551.41;2055529;28;44050;-73
2022/02/11 07:18:34;;;;;;;;;;;;;;;3.64;97.93;101541.69;2053511;28;42606;-73
2022/02/11 07:19:36;;;;;;;;;;;;;;;3.64;97.51;101552.28;2047616;28;45591;-73
2022/02/11 07:20:41;;;;;;;;;;;;;;;3.63;97.77;101551.41;2047077;28;43592;-73
2022/02/11 07:21:42;;;;;;;;;;;;;;;3.64;97.57;101536.41;2047364;28;44225;-73
2022/02/11 07:22:44;;;;;;;;;;;;;;;3.65;97.75;101540.84;2044687;28;45544;-73
2022/02/11 07:23:45;;;;;;;;;;;;;;;3.66;97.79;101555.88;2047770;28;44265;-73
2022/02/11 07:24:51;;;;;;;;;;;;;;;3.67;97.18;101557.63;2047149;28;42197;-73
2022/02/11 07:25:53;;;;;;;;;;;;;;;3.68;97.79;101562.06;2041893;28;44954;-73
2022/02/11 07:26:55;;;;;;;;;;;;;;;3.69;97.42;101562.97;2047787;28;19997;-73
2022/02/11 07:27:57;;;;;;;;;;;;;;;3.70;98.14;101568.28;2047269;28;44045;-73
2022/02/11 07:29:05;;;;;;;;;;;;;;;3.73;97.37;101563.03;2047596;28;43248;-72
2022/02/11 07:30:08;;;;;;;;;;;;;;;3.76;97.80;101578.97;2047389;28;44142;-73
2022/02/11 07:31:12;;;;;;;;;;;;;;;3.79;97.53;101568.41;2047429;28;44438;-72
2022/02/11 07:32:16;;;;;;;;;;;;;;;3.80;97.47;101580.81;2048752;28;43134;-72
2022/02/11 07:33:19;;;;;;;;;;;;;;;3.80;97.76;101571.94;2054505;28;46921;-72
2022/02/11 07:34:20;;;;;;;;;;;;;;;3.80;97.54;101580.81;2055349;28;44773;-72
2022/02/11 07:35:22;;;;;;;;;;;;;;;3.81;97.57;101582.56;2055634;28;45411;-72
2022/02/11 07:36:24;;;;;;;;;;;;;;;3.82;98.11;101580.81;2055451;28;46134;-72
2022/02/11 07:37:26;;;;;;;;;;;;;;;3.83;98.21;101586.13;2055162;28;42982;-72
2022/02/11 07:38:28;;;;;;;;;;;;;;;3.84;97.73;101587.03;2055636;28;44396;-72
2022/02/11 07:39:31;;;;;;;;;;;;;;;3.88;98.03;101582.69;2054983;28;45554;-72
2022/02/11 07:40:34;;;;;;;;;;;;;;;3.89;97.84;101595.91;2054950;28;43986;-73
2022/02/11 07:41:36;;;;;;;;;;;;;;;3.94;97.57;101588.06;2054281;28;46403;-72
2022/02/11 07:42:41;;;;;;;;;;;;;;;3.95;97.29;101603.97;2055579;28;20819;-72
2022/02/11 07:43:47;;;;;;;;;;;;;;;4.03;97.37;101608.50;2049697;28;43126;-72
2022/02/11 07:44:48;;;;;;;;;;;;;;;4.03;96.80;101608.50;2055171;28;45074;-72
2022/02/11 07:45:50;;;;;;;;;;;;;;;4.04;97.13;101616.47;2055208;28;45085;-72
2022/02/11 07:46:52;;;;;;;;;;;;;;;4.05;96.45;101626.19;2055162;28;45229;-72
2022/02/11 07:47:56;;;;;;;;;;;;;;;4.07;96.58;101624.44;2055056;28;43949;-73
2022/02/11 07:48:57;;;;;;;;;;;;;;;4.10;97.40;101621.84;2054976;28;45389;-73
2022/02/11 07:49:59;;;;;;;;;;;;;;;4.12;97.15;101637.78;2055286;28;44486;-73
2022/02/11 07:51:03;;;;;;;;;;;;;;;4.13;97.03;101636.94;2054691;28;43024;-72
2022/02/11 07:52:05;;;;;;;;;;;;;;;4.13;96.16;101636.94;2054824;28;44333;-73
2022/02/11 07:53:07;;;;;;;;;;;;;;;4.13;96.31;101639.56;2055392;28;44251;-74
2022/02/11 07:54:09;;;;;;;;;;;;;;;4.12;97.00;101649.25;2055102;28;45648;-74
2022/02/11 07:55:14;;;;;;;;;;;;;;;4.14;96.59;101655.47;2055350;28;44651;-74
2022/02/11 07:56:15;;;;;;;;;;;;;;;4.14;96.89;101650.16;2055446;28;20032;-74
2022/02/11 07:57:17;;;;;;;;;;;;;;;4.17;96.69;101652.00;2055206;28;46754;-73
2022/02/11 07:58:23;;;;;;;;;;;;;;;4.14;97.26;101655.47;2057088;28;42802;-74
2022/02/11 07:59:27;;;;;;;;;;;;;;;4.16;95.89;101659.06;2056393;28;45909;-73
2022/02/11 08:00:29;;;;;;;;;;;;;;;4.18;96.62;101659.97;2056704;28;46646;-73
2022/02/11 08:01:33;;;;;;;;;;;;;;;4.21;96.75;101662.66;2057545;28;20077;-72
2022/02/11 08:02:36;;;;;;;;;;;;;;;4.23;95.45;101680.34;2056525;28;45338;-73
2022/02/11 08:03:38;;;;;;;;;;;;;;;4.27;95.11;101666.25;2055755;28;43740;-72
2022/02/11 08:04:43;;;;;;;;;;;;;;;4.33;95.10;101672.56;2056573;28;45222;-73
2022/02/11 08:05:45;;;;;;;;;;;;;;;4.36;94.32;101677.00;2056928;28;32884;-73
2022/02/11 08:06:47;;;;;;;;;;;;;;;4.38;94.89;101678.81;2056527;28;44474;-72
2022/02/11 08:07:48;;;;;;;;;;;;;;;4.39;94.76;101683.22;2056711;28;44129;-73
2022/02/11 08:08:50;;;;;;;;;;;;;;;4.40;94.31;101692.09;2056559;28;44994;-72
2022/02/11 08:09:54;;;;;;;;;;;;;;;4.42;94.39;101694.78;2056578;28;45423;-72
2022/02/11 08:10:55;;;;;;;;;;;;;;;4.40;94.44;101690.31;2055569;28;45282;-73
2022/02/11 08:11:59;;;;;;;;;;;;;;;4.39;94.04;101693.84;2056658;28;19965;-73
2022/02/11 08:13:00;;;;;;;;;;;;;;;4.42;93.91;101708.91;2055959;28;43053;-72
2022/02/11 08:14:02;;;;;;;;;;;;;;;4.43;94.02;101704.50;2056353;28;44877;-73
2022/02/11 08:15:05;;;;;;;;;;;;;;;4.48;93.78;101713.41;2056647;28;45542;-72
2022/02/11 08:16:07;;;;;;;;;;;;;;;4.45;94.42;101714.28;2056469;28;41664;-73
2022/02/11 08:17:08;;;;;;;;;;;;;;;4.49;93.58;101721.41;2056403;28;42726;-73
2022/02/11 08:18:10;;;;;;;;;;;;;;;4.48;93.27;101714.28;2055525;28;45321;-72
2022/02/11 08:19:23;;;;;;;;;;;;;;;4.47;94.56;101722.22;2056360;28;45001;-71
2022/02/11 08:20:25;;;;;;;;;;;;;;;4.48;93.55;101724.91;2057137;28;43886;-72
2022/02/11 08:21:26;;;;;;;;;;;;;;;4.48;94.40;101719.59;2056269;28;40671;-72
2022/02/11 08:22:30;;;;;;;;;;;;;;;4.50;94.10;101736.41;2055939;28;44423;-72
2022/02/11 08:23:32;;;;;;;;;;;;;;;4.52;93.81;101739.09;2055518;28;43769;-72
2022/02/11 08:24:34;;;;;;;;;;;;;;;4.54;93.66;101740.91;2056661;28;45056;-72
2022/02/11 08:25:35;;;;;;;;;;;;;;;4.59;93.68;101744.53;2055112;28;42292;-72
2022/02/11 08:26:37;;;;;;;;;;;;;;;4.66;92.67;101744.59;2056162;28;44408;-72
2022/02/11 08:27:40;;;;;;;;;;;;;;;4.68;93.60;101742.88;2056100;28;44547;-73
2022/02/11 08:28:42;;;;;;;;;;;;;;;4.70;91.98;101757.03;2056643;28;44444;-73
2022/02/11 08:29:45;;;;;;;;;;;;;;;4.68;92.05;101759.66;2056395;28;46764;-73
2022/02/11 08:30:49;;;;;;;;;;;;;;;4.73;92.00;101765.06;2054939;28;44611;-73
2022/02/11 08:31:55;;;;;;;;;;;;;;;4.72;92.70;101764.16;2055627;28;43495;-72
2022/02/11 08:32:56;;;;;;;;;;;;;;;4.72;92.39;101773.88;2055595;28;45776;-72
2022/02/11 08:33:59;;;;;;;;;;;;;;;4.75;92.38;101771.25;2056408;28;45371;-72
2022/02/11 08:35:00;;;;;;;;;;;;;;;4.73;92.70;101775.66;2056490;28;45982;-72
2022/02/11 08:36:02;;;;;;;;;;;;;;;4.71;92.36;101774.75;2056224;28;44177;-73
2022/02/11 08:37:04;;;;;;;;;;;;;;;4.78;91.85;101780.16;2056609;28;43091;-72
2022/02/11 08:38:06;;;;;;;;;;;;;;;4.75;91.53;101781.88;2056049;28;45805;-72
2022/02/11 08:39:09;;;;;;;;;;;;;;;4.82;92.53;101797.00;2056314;28;43992;-73
2022/02/11 08:40:11;;;;;;;;;;;;;;;4.82;92.15;101791.72;2056193;28;44919;-72
2022/02/11 08:41:13;;;;;;;;;;;;;;;4.85;91.82;101796.19;2055743;28;41691;-72
2022/02/11 08:42:14;;;;;;;;;;;;;;;4.83;92.44;101814.72;2056579;28;45282;-72
2022/02/11 08:43:17;;;;;;;;;;;;;;;4.84;91.58;101813.84;2056028;28;46371;-71
2022/02/11 08:44:19;;;;;;;;;;;;;;;4.83;91.62;101812.06;2056396;28;42590;-72
2022/02/11 08:45:21;;;;;;;;;;;;;;;4.87;92.46;101813.91;2056193;28;44624;-72
2022/02/11 08:46:22;;;;;;;;;;;;;;;4.86;91.09;101817.41;2056280;28;45943;-72
2022/02/11 08:47:24;;;;;;;;;;;;;;;4.91;91.71;101826.31;2056374;28;45728;-72
2022/02/11 08:48:26;;;;;;;;;;;;;;;4.92;92.04;101822.81;2056387;28;45052;-72
2022/02/11 08:49:27;;;;;;;;;;;;;;;4.89;91.67;101825.41;2056149;28;44609;-72
2022/02/11 08:50:29;;;;;;;;;;;;;;;4.96;91.96;101827.28;2056352;28;44570;-71
2022/02/11 08:51:50;;;;;;;;;;;;;;;4.96;91.73;101824.63;2056991;28;19982;-72
2022/02/11 08:52:52;;;;;;;;;;;;;;;5.04;89.99;101840.66;2056323;28;44205;-71
2022/02/11 08:53:54;;;;;;;;;;;;;;;4.96;89.95;101840.56;2056063;28;46304;-72
2022/02/11 08:55:00;;;;;;;;;;;;;;;5.01;90.79;101850.34;2056291;28;44142;-71
2022/02/11 08:56:06;;;;;;;;;;;;;;;5.01;89.46;101853.91;2056162;28;43922;-72
2022/02/11 08:57:08;;;;;;;;;;;;;;;5.03;90.80;101862.78;2056179;28;45751;-72
2022/02/11 08:58:10;;;;;;;;;;;;;;;5.11;90.30;101860.22;2056641;28;37303;-71
2022/02/11 08:59:11;;;;;;;;;;;;;;;5.15;89.73;101868.28;2056349;28;46282;-72
2022/02/11 09:00:15;;;;;;;;;;;;;;;5.15;90.83;101862.97;2056039;28;42961;-72
2022/02/11 09:01:17;;;;;;;;;;;;;;;5.02;89.91;101866.28;2056046;28;44441;-71
2022/02/11 09:02:19;;;;;;;;;;;;;;;5.01;89.59;101869.84;2056241;28;44547;-72
2022/02/11 09:03:20;;;;;;;;;;;;;;;5.06;89.71;101883.16;2055708;28;44074;-72
2022/02/11 09:04:22;;;;;;;;;;;;;;;5.08;90.76;101876.09;2055865;28;45240;-72